createdAt,value
2023-01-08T00:03:50.634Z,7.10
2023-01-08T00:09:11.787Z,6.99
2023-01-08T00:14:32.062Z,6.93
2023-01-08T00:19:52.647Z,7.03
2023-01-08T00:25:13.488Z,7.13
2023-01-08T00:30:34.150Z,7.24
2023-01-08T00:35:54.604Z,7.32
2023-01-08T00:41:16.503Z,7.25
2023-01-08T00:46:37.203Z,7.29
2023-01-08T00:51:57.911Z,7.23
2023-01-08T00:57:18.413Z,7.17
2023-01-08T01:02:40.133Z,7.01
2023-01-08T01:08:00.759Z,7.02
2023-01-08T01:13:21.331Z,6.97
2023-01-08T01:18:41.866Z,6.97
2023-01-08T01:24:05.770Z,7.01
2023-01-08T01:29:26.877Z,7.03
2023-01-08T01:34:51.838Z,7.15
2023-01-08T01:40:12.548Z,7.04
2023-01-08T01:45:34.717Z,7.06
2023-01-08T01:50:55.551Z,7.13
2023-01-08T01:56:16.645Z,7.14
2023-01-08T02:01:38.403Z,7.23
2023-01-08T02:07:12.953Z,7.33
2023-01-08T02:12:41.869Z,7.52
2023-01-08T02:18:07.859Z,7.67
2023-01-08T02:23:43.377Z,7.74
2023-01-08T02:29:14.560Z,7.69
2023-01-08T02:34:35.363Z,7.90
2023-01-08T02:40:19.396Z,7.97
2023-01-08T02:45:50.600Z,7.88
2023-01-08T02:51:18.175Z,8.00
2023-01-08T02:56:44.958Z,8.00
2023-01-08T03:02:06.645Z,8.00
2023-01-08T03:07:27.329Z,8.02
2023-01-08T03:12:54.746Z,8.05
2023-01-08T03:18:20.889Z,7.94
2023-01-08T03:23:43.315Z,8.13
2023-01-08T03:29:06.617Z,8.03
2023-01-08T03:34:31.262Z,8.03
2023-01-08T03:40:04.119Z,7.99
2023-01-08T03:45:30.363Z,7.79
2023-01-08T03:50:51.047Z,7.75
2023-01-08T03:56:11.615Z,7.80
2023-01-08T04:01:32.854Z,7.61
2023-01-08T04:06:53.630Z,7.56
2023-01-08T04:12:14.450Z,7.58
2023-01-08T04:17:34.866Z,7.57
2023-01-08T04:22:55.764Z,7.52
2023-01-08T04:28:16.440Z,7.56
2023-01-08T04:33:37.290Z,7.50
2023-01-08T04:38:57.823Z,7.55
2023-01-08T04:44:18.754Z,7.59
2023-01-08T04:49:39.782Z,7.34
2023-01-08T04:55:00.361Z,7.29
2023-01-08T05:00:21.181Z,7.24
2023-01-08T05:05:41.609Z,7.24
2023-01-08T05:11:03.143Z,7.23
2023-01-08T05:16:23.641Z,7.21
2023-01-08T05:21:44.428Z,7.23
2023-01-08T05:27:06.147Z,7.23
2023-01-08T05:32:26.750Z,7.18
2023-01-08T05:37:47.397Z,7.15
2023-01-08T05:43:08.345Z,7.14
2023-01-08T05:48:33.548Z,7.27
2023-01-08T05:53:53.926Z,7.29
2023-01-08T05:59:14.543Z,7.11
2023-01-08T06:04:35.374Z,7.12
2023-01-08T06:09:55.824Z,7.09
2023-01-08T06:15:16.431Z,7.12
2023-01-08T06:20:37.251Z,7.15
2023-01-08T06:26:00.549Z,7.13
2023-01-08T06:31:20.966Z,7.09
2023-01-08T06:36:41.437Z,7.04
2023-01-08T06:42:01.859Z,7.04
2023-01-08T06:47:22.762Z,7.00
2023-01-08T06:52:43.228Z,6.97
2023-01-08T06:58:03.934Z,6.97
2023-01-08T07:03:24.740Z,6.98
2023-01-08T07:08:45.983Z,6.96
2023-01-08T07:14:06.784Z,6.97
2023-01-08T07:19:27.311Z,6.98
2023-01-08T07:24:47.775Z,6.96
2023-01-08T07:30:18.003Z,7.01
2023-01-08T07:35:52.489Z,6.97
2023-01-08T07:41:13.278Z,7.03
2023-01-08T07:46:33.775Z,7.09
2023-01-08T07:51:54.395Z,7.21
2023-01-08T07:57:14.850Z,7.26
2023-01-08T08:02:35.978Z,7.19
2023-01-08T08:07:56.624Z,7.45
2023-01-08T08:13:17.368Z,7.52
2023-01-08T08:18:37.796Z,7.52
2023-01-08T08:23:58.864Z,7.39
2023-01-08T08:29:20.111Z,7.40
2023-01-08T08:34:40.820Z,7.24
2023-01-08T08:40:01.162Z,7.27
2023-01-08T08:45:22.140Z,7.37
2023-01-08T08:50:43.296Z,7.39
2023-01-08T08:56:04.154Z,7.44
2023-01-08T09:01:25.227Z,7.49
2023-01-08T09:06:45.867Z,7.51
2023-01-08T09:12:07.640Z,7.56
2023-01-08T09:17:28.154Z,7.65
2023-01-08T09:22:48.961Z,7.74
2023-01-08T09:28:12.257Z,7.79
2023-01-08T09:33:33.151Z,7.83
2023-01-08T09:38:53.502Z,7.89
2023-01-08T09:44:18.786Z,7.95
2023-01-08T09:49:45.980Z,7.96
2023-01-08T09:55:13.254Z,7.99
2023-01-08T10:00:34.544Z,8.01
2023-01-08T10:05:55.324Z,8.01
2023-01-08T10:11:16.607Z,8.10
2023-01-08T10:16:38.119Z,8.21
2023-01-08T10:21:58.754Z,8.22
2023-01-08T10:27:23.450Z,8.21
2023-01-08T10:32:54.522Z,8.30
2023-01-08T10:38:33.407Z,8.98
2023-01-08T10:44:04.462Z,8.96
2023-01-08T10:49:39.801Z,8.88
2023-01-08T10:55:24.411Z,9.64
2023-01-08T11:00:45.353Z,9.92
2023-01-08T11:06:18.069Z,10.00
2023-01-08T11:11:38.855Z,9.49
2023-01-08T11:16:59.726Z,9.29
2023-01-08T11:23:12.839Z,9.52
2023-01-08T11:28:50.862Z,10.05
2023-01-08T11:34:20.786Z,10.32
2023-01-08T11:39:41.410Z,10.56
2023-01-08T11:45:23.837Z,10.54
2023-01-08T11:51:03.371Z,10.90
2023-01-08T11:56:56.770Z,10.98
2023-01-08T12:02:38.700Z,10.91
2023-01-08T12:08:17.954Z,11.04
2023-01-08T12:13:58.167Z,10.88
2023-01-08T12:19:31.433Z,10.77
2023-01-08T12:25:22.707Z,10.67
2023-01-08T12:31:17.169Z,10.78
2023-01-08T12:36:41.518Z,10.79
2023-01-08T12:42:11.817Z,10.87
2023-01-08T12:47:37.013Z,10.80
2023-01-08T12:53:31.969Z,10.67
2023-01-08T12:59:11.522Z,10.55
2023-01-08T13:04:43.375Z,10.27
2023-01-08T13:10:08.253Z,10.01
2023-01-08T13:15:31.411Z,9.69
2023-01-08T13:20:57.271Z,9.23
2023-01-08T13:26:30.052Z,9.01
2023-01-08T13:31:50.689Z,8.79
2023-01-08T13:37:19.678Z,8.69
2023-01-08T13:42:49.085Z,8.50
2023-01-08T13:48:32.336Z,8.31
2023-01-08T13:53:53.015Z,8.37
2023-01-08T13:59:38.549Z,8.33
2023-01-08T14:05:00.189Z,8.24
2023-01-08T14:10:21.359Z,8.31
2023-01-08T14:15:42.193Z,8.28
2023-01-08T14:21:03.401Z,8.21
2023-01-08T14:26:31.968Z,7.88
2023-01-08T14:31:56.023Z,7.77
2023-01-08T14:37:17.654Z,7.65
2023-01-08T14:42:46.857Z,7.52
2023-01-08T14:48:17.518Z,7.34
2023-01-08T14:53:46.144Z,7.17
2023-01-08T14:59:10.475Z,7.04
2023-01-08T15:04:31.484Z,7.00
2023-01-08T15:09:57.745Z,6.90
2023-01-08T15:15:23.790Z,6.83
2023-01-08T15:20:44.921Z,6.72
2023-01-08T15:26:10.532Z,6.58
2023-01-08T15:31:44.711Z,6.52
2023-01-08T15:37:06.016Z,6.46
2023-01-08T15:42:51.081Z,6.34
2023-01-08T15:48:14.723Z,6.36
2023-01-08T15:53:35.178Z,6.43
2023-01-08T15:58:55.708Z,6.41
2023-01-08T16:04:16.028Z,6.43
2023-01-08T16:09:36.552Z,6.44
2023-01-08T16:14:56.827Z,6.40
2023-01-08T16:20:18.138Z,6.37
2023-01-08T16:25:39.666Z,6.32
2023-01-08T16:31:00.077Z,6.29
2023-01-08T16:36:21.772Z,6.24
2023-01-08T16:41:42.647Z,6.17
2023-01-08T16:47:03.477Z,6.17
2023-01-08T16:52:23.934Z,6.14
2023-01-08T16:57:44.425Z,6.12
2023-01-08T17:03:06.296Z,6.13
2023-01-08T17:08:27.938Z,6.18
2023-01-08T17:13:49.694Z,6.23
2023-01-08T17:19:10.899Z,6.22
2023-01-08T17:24:32.013Z,6.23
2023-01-08T17:29:52.422Z,6.20
2023-01-08T17:35:13.484Z,6.22
2023-01-08T17:40:34.512Z,6.24
2023-01-08T17:45:56.469Z,6.35
2023-01-08T17:51:17.192Z,6.46
2023-01-08T17:56:38.413Z,6.60
2023-01-08T18:02:01.855Z,6.63
2023-01-08T18:07:23.741Z,6.68
2023-01-08T18:12:44.363Z,6.91
2023-01-08T18:18:04.909Z,6.99
2023-01-08T18:23:25.727Z,6.68
2023-01-08T18:28:47.291Z,6.64
2023-01-08T18:34:09.064Z,6.70
2023-01-08T18:39:30.852Z,6.82
2023-01-08T18:44:56.365Z,6.98
2023-01-08T18:50:17.582Z,6.97
2023-01-08T18:55:37.972Z,7.05
2023-01-08T19:01:05.009Z,7.02
2023-01-08T19:06:25.799Z,7.09
2023-01-08T19:11:46.834Z,7.17
2023-01-08T19:17:07.370Z,7.17
2023-01-08T19:22:28.551Z,7.13
2023-01-08T19:27:48.932Z,7.16
2023-01-08T19:33:09.882Z,7.18
2023-01-08T19:38:30.472Z,7.17
2023-01-08T19:43:50.869Z,7.16
2023-01-08T19:49:11.190Z,7.16
2023-01-08T19:54:31.850Z,7.20
2023-01-08T19:59:52.237Z,7.11
2023-01-08T20:05:13.199Z,6.93
2023-01-08T20:10:33.959Z,6.83
2023-01-08T20:15:56.451Z,6.73
2023-01-08T20:21:23.901Z,6.70
2023-01-08T20:26:46.057Z,6.71
2023-01-08T20:32:06.480Z,6.56
2023-01-08T20:37:26.935Z,6.47
2023-01-08T20:42:47.782Z,6.42
2023-01-08T20:48:09.075Z,6.35
2023-01-08T20:53:30.321Z,6.39
2023-01-08T20:58:51.186Z,6.61
2023-01-08T21:04:12.904Z,6.72
2023-01-08T21:09:35.339Z,6.77
2023-01-08T21:14:56.897Z,6.77
2023-01-08T21:20:22.943Z,6.46
2023-01-08T21:25:45.315Z,6.36
2023-01-08T21:31:11.815Z,6.28
2023-01-08T21:36:32.537Z,6.23
2023-01-08T21:42:15.487Z,6.21
2023-01-08T21:47:36.773Z,6.20
2023-01-08T21:53:16.234Z,6.15
2023-01-08T21:58:40.002Z,6.07
2023-01-08T22:04:06.593Z,5.99
2023-01-08T22:09:28.095Z,5.96
2023-01-08T22:14:52.751Z,5.92
2023-01-08T22:20:13.878Z,5.92
2023-01-08T22:25:39.589Z,5.83
2023-01-08T22:31:04.953Z,5.80
2023-01-08T22:36:25.890Z,5.78
2023-01-08T22:41:49.816Z,5.78
2023-01-08T22:47:21.868Z,5.76
2023-01-08T22:52:42.721Z,5.72
2023-01-08T22:58:04.615Z,5.66
2023-01-08T23:03:31.515Z,5.67
2023-01-08T23:08:54.339Z,5.65
2023-01-08T23:14:20.955Z,5.64
2023-01-08T23:19:45.141Z,5.63
2023-01-08T23:25:06.366Z,5.62
2023-01-08T23:30:31.440Z,5.63
2023-01-08T23:35:52.777Z,5.65
2023-01-08T23:41:16.787Z,5.59
2023-01-08T23:46:37.968Z,5.52
2023-01-08T23:51:58.587Z,5.46
2023-01-08T23:57:21.891Z,5.44
